Time;durP1;ratioP1;P1;durP2;ratioP2;P2;SDS_P1;SDS_P2;PMS_P1;PMS_P2;Temp;Humidity;BMP_temperature;BMP_pressure;BME280_temperature;BME280_humidity;BME280_pressure;Samples;Min_cycle;Max_cycle;Signal;HPM_P1;HPM_P2
2023/01/06 00:00:39;;;;;;;;;3.00;3.00;;;;;10.94;85.14;100162.91;5037720;28;8863;-60
2023/01/06 00:03:07;;;;;;;;;7.00;6.00;;;;;10.94;85.63;100162.91;5037391;28;8836;-59
2023/01/06 00:05:35;;;;;;;;;5.75;4.75;;;;;10.92;85.19;100160.34;5036706;28;8820;-61
2023/01/06 00:08:03;;;;;;;;;3.25;3.25;;;;;10.92;85.46;100156.88;5036213;28;8958;-60
2023/01/06 00:10:30;;;;;;;;;3.00;2.00;;;;;10.91;85.17;100158.66;5036099;28;8836;-59
2023/01/06 00:12:59;;;;;;;;;4.00;4.00;;;;;10.92;85.76;100162.19;5036049;28;8971;-61
2023/01/06 00:15:27;;;;;;;;;3.00;3.00;;;;;10.90;85.82;100156.97;5036486;28;8828;-59
2023/01/06 00:17:55;;;;;;;;;3.00;1.50;;;;;10.90;85.71;100164.09;5036584;28;8863;-60
2023/01/06 00:20:22;;;;;;;;;3.00;3.00;;;;;10.90;85.59;100162.31;5036474;28;8959;-60
2023/01/06 00:22:50;;;;;;;;;1.00;1.00;;;;;10.91;84.86;100164.00;5035760;28;8859;-60
2023/01/06 00:25:18;;;;;;;;;3.00;1.50;;;;;10.93;85.32;100156.72;5037350;28;8832;-60
2023/01/06 00:27:46;;;;;;;;;0.00;0.00;;;;;10.94;84.95;100160.25;5037068;28;9556;-60
2023/01/06 00:30:14;;;;;;;;;1.00;1.00;;;;;10.90;85.07;100172.09;5035721;28;8851;-60
2023/01/06 00:32:41;;;;;;;;;3.00;1.00;;;;;10.77;84.97;100155.38;5037159;28;8824;-60
2023/01/06 00:35:10;;;;;;;;;3.50;1.50;;;;;10.69;85.50;100149.81;5037094;28;8866;-60
2023/01/06 00:37:37;;;;;;;;;0.75;0.75;;;;;10.61;85.75;100153.03;5037213;28;8839;-60
2023/01/06 00:40:06;;;;;;;;;0.25;0.25;;;;;10.57;86.21;100153.38;5037335;28;8840;-60
2023/01/06 00:42:33;;;;;;;;;1.00;1.00;;;;;10.53;86.07;100150.09;5037061;28;8871;-60
2023/01/06 00:45:01;;;;;;;;;1.00;1.00;;;;;10.53;85.78;100151.91;5037257;28;9510;-60
2023/01/06 00:47:29;;;;;;;;;0.00;0.00;;;;;10.53;85.81;100144.78;5036964;28;8880;-60
2023/01/06 00:49:56;;;;;;;;;0.50;0.50;;;;;10.54;85.75;100137.66;5037198;28;8824;-60
2023/01/06 00:52:24;;;;;;;;;1.00;1.00;;;;;10.56;85.53;100141.03;5036680;28;8852;-59
2023/01/06 00:54:52;;;;;;;;;1.00;1.00;;;;;10.57;85.21;100132.94;5036115;28;8843;-60
2023/01/06 00:57:20;;;;;;;;;1.00;1.00;;;;;10.59;85.17;100128.34;5036840;28;8847;-60
2023/01/06 00:59:47;;;;;;;;;0.00;0.00;;;;;10.60;85.58;100130.03;5035923;28;9526;-60
2023/01/06 01:02:15;;;;;;;;;1.00;0.75;;;;;10.62;85.51;100133.41;5036734;28;9498;-60
2023/01/06 01:04:43;;;;;;;;;0.50;0.50;;;;;10.62;85.41;100119.28;5037007;28;8922;-60
2023/01/06 01:07:11;;;;;;;;;0.00;0.00;;;;;10.63;85.36;100123.63;5036670;28;8855;-60
2023/01/06 01:09:39;;;;;;;;;1.00;1.00;;;;;10.65;85.16;100125.22;5037153;28;8820;-60
2023/01/06 01:12:10;;;;;;;;;0.50;0.50;;;;;10.66;85.07;100124.25;5036736;28;8968;-60
2023/01/06 01:14:38;;;;;;;;;1.00;1.00;;;;;10.69;85.08;100128.50;5037068;28;8832;-60
2023/01/06 01:17:06;;;;;;;;;1.00;1.00;;;;;10.70;84.79;100127.53;5037019;28;8841;-60
2023/01/06 01:19:34;;;;;;;;;0.00;0.00;;;;;10.72;85.24;100125.59;5037133;28;8817;-60
2023/01/06 01:22:01;;;;;;;;;0.00;0.00;;;;;10.76;84.54;100127.88;5036876;28;8824;-60
2023/01/06 01:24:29;;;;;;;;;1.00;1.00;;;;;10.78;84.58;100128.59;5037027;28;8860;-60
2023/01/06 01:26:57;;;;;;;;;1.00;1.00;;;;;10.81;84.62;100133.72;5036677;28;8862;-60
2023/01/06 01:29:25;;;;;;;;;0.00;0.00;;;;;10.84;84.55;100125.47;5036368;28;8820;-60
2023/01/06 01:31:53;;;;;;;;;1.67;0.33;;;;;10.85;84.45;100132.50;5036723;28;8820;-60
2023/01/06 01:34:20;;;;;;;;;0.00;0.00;;;;;10.87;84.62;100119.94;5036325;28;8900;-60
2023/01/06 01:36:48;;;;;;;;;0.50;0.50;;;;;10.89;84.25;100123.31;5036850;28;8848;-60
2023/01/06 01:39:16;;;;;;;;;1.00;1.00;;;;;10.92;84.56;100117.72;5036596;28;8835;-60
2023/01/06 01:41:44;;;;;;;;;1.00;1.00;;;;;10.93;84.41;100119.41;5036559;28;8845;-58
2023/01/06 01:44:12;;;;;;;;;1.00;1.00;;;;;10.95;84.28;100117.50;5036595;28;8847;-58
2023/01/06 01:46:40;;;;;;;;;0.00;0.00;;;;;10.96;84.58;100113.88;5036175;28;8840;-59
2023/01/06 01:49:07;;;;;;;;;1.50;1.50;;;;;10.99;84.47;100118.94;5036374;28;8852;-60
2023/01/06 01:51:35;;;;;;;;;1.00;1.00;;;;;11.00;83.92;100117.97;5036413;28;8840;-59
2023/01/06 01:54:03;;;;;;;;;1.00;1.00;;;;;11.00;84.12;100112.66;5036538;28;8828;-58
2023/01/06 01:56:31;;;;;;;;;2.50;2.50;;;;;11.02;83.94;100117.88;5036496;28;8867;-57
2023/01/06 01:58:58;;;;;;;;;1.00;0.00;;;;;11.01;84.17;100108.19;5035810;28;8829;-60
2023/01/06 02:01:26;;;;;;;;;2.00;1.00;;;;;11.03;84.21;100106.22;5036264;28;8851;-60
2023/01/06 02:03:54;;;;;;;;;2.00;2.00;;;;;11.04;84.01;100108.78;5036041;28;8832;-60
2023/01/06 02:06:22;;;;;;;;;0.50;0.50;;;;;11.05;84.01;100106.94;5036102;28;8828;-60
2023/01/06 02:08:50;;;;;;;;;0.00;0.00;;;;;11.05;84.17;100097.16;5035756;28;8844;-58
2023/01/06 02:11:17;;;;;;;;;0.00;0.00;;;;;11.07;83.53;100102.38;5036012;28;8853;-60
2023/01/06 02:13:46;;;;;;;;;0.00;0.00;;;;;11.09;84.07;100095.94;5035922;28;8833;-59
2023/01/06 02:16:13;;;;;;;;;1.00;1.00;;;;;11.11;83.78;100095.81;5036119;28;8850;-58
2023/01/06 02:18:42;;;;;;;;;1.00;0.75;;;;;11.11;83.41;100098.47;5036240;28;8852;-61
2023/01/06 02:21:09;;;;;;;;;0.00;0.00;;;;;11.13;83.15;100089.41;5035121;28;8930;-60
2023/01/06 02:23:37;;;;;;;;;0.00;0.00;;;;;11.14;83.08;100091.09;5035780;28;9568;-61
2023/01/06 02:26:05;;;;;;;;;1.00;1.00;;;;;11.17;83.24;100087.34;5036073;28;8843;-59
2023/01/06 02:28:32;;;;;;;;;0.00;0.00;;;;;11.17;83.04;100080.19;5034335;28;8836;-60
2023/01/06 02:31:01;;;;;;;;;2.00;2.00;;;;;11.17;82.51;100090.88;5034497;28;8832;-60
2023/01/06 02:33:28;;;;;;;;;0.25;0.00;;;;;11.17;82.86;100080.19;5034757;28;8840;-60
2023/01/06 02:35:56;;;;;;;;;1.00;0.75;;;;;11.18;82.78;100081.91;5035016;28;8867;-60
2023/01/06 02:38:25;;;;;;;;;0.50;0.50;;;;;11.17;82.58;100080.19;5034762;28;8817;-59
2023/01/06 02:40:53;;;;;;;;;0.25;0.25;;;;;11.19;82.86;100075.59;5035285;28;8820;-60
2023/01/06 02:43:21;;;;;;;;;0.50;0.50;;;;;11.21;82.36;100070.16;5035756;28;8856;-58
2023/01/06 02:45:49;;;;;;;;;0.00;0.00;;;;;11.21;82.62;100065.66;5036762;28;8824;-59
2023/01/06 02:48:17;;;;;;;;;1.00;1.00;;;;;11.20;82.84;100058.63;5040055;28;8910;-59
2023/01/06 02:50:44;;;;;;;;;1.00;1.00;;;;;11.21;82.17;100060.31;5039742;28;8832;-59
2023/01/06 02:53:12;;;;;;;;;0.00;0.00;;;;;11.22;82.46;100050.50;5040026;28;8828;-60
2023/01/06 02:55:40;;;;;;;;;1.00;1.00;;;;;11.21;82.15;100043.50;5040311;28;8820;-60
2023/01/06 02:58:07;;;;;;;;;0.25;0.25;;;;;11.20;81.67;100045.28;5039382;28;8913;-60
2023/01/06 03:00:35;;;;;;;;;1.00;0.75;;;;;11.23;82.24;100049.53;5039698;28;8829;-59
2023/01/06 03:03:03;;;;;;;;;2.00;2.00;;;;;11.20;81.67;100045.28;5039609;28;8951;-58
2023/01/06 03:05:31;;;;;;;;;1.00;1.00;;;;;11.22;82.45;100045.19;5039640;28;8879;-60
2023/01/06 03:08:00;;;;;;;;;1.00;1.00;;;;;11.21;82.27;100048.81;5039397;28;8808;-59
2023/01/06 03:10:28;;;;;;;;;6.00;3.25;;;;;11.21;81.56;100040.81;5038589;28;8862;-59
2023/01/06 03:12:56;;;;;;;;;3.25;2.00;;;;;11.22;82.58;100042.50;5038847;28;8840;-60
2023/01/06 03:15:23;;;;;;;;;2.00;2.00;;;;;11.22;81.93;100034.53;5038325;28;8848;-60
2023/01/06 03:17:51;;;;;;;;;0.50;0.00;;;;;11.20;81.87;100037.31;5038261;28;8860;-60
2023/01/06 03:20:19;;;;;;;;;1.00;1.00;;;;;11.20;81.92;100037.31;5038635;28;8836;-60
2023/01/06 03:22:46;;;;;;;;;1.00;1.00;;;;;11.23;82.06;100044.22;5039320;28;8832;-60
2023/01/06 03:25:14;;;;;;;;;1.00;1.00;;;;;11.22;81.33;100032.69;5039105;28;8813;-60
2023/01/06 03:27:42;;;;;;;;;1.00;1.00;;;;;11.23;81.56;100028.22;5038983;28;8836;-60
2023/01/06 03:30:10;;;;;;;;;1.00;1.00;;;;;11.23;82.28;100030.88;5038908;28;8805;-61
2023/01/06 03:32:38;;;;;;;;;1.00;1.00;;;;;11.22;81.54;100024.69;5038302;28;8849;-59
2023/01/06 03:35:05;;;;;;;;;1.00;1.00;;;;;11.23;81.94;100022.88;5038710;28;8852;-60
2023/01/06 03:37:33;;;;;;;;;0.50;0.50;;;;;11.23;81.50;100009.56;5038972;28;8832;-60
2023/01/06 03:40:01;;;;;;;;;1.00;1.00;;;;;11.22;81.39;100022.03;5038758;28;8841;-60
2023/01/06 03:45:14;;;;;;;;;1.00;1.00;;;;;11.21;81.60;100023.00;5038540;28;8841;-61
2023/01/06 03:47:41;;;;;;;;;1.00;1.00;;;;;11.20;81.38;100029.31;5037107;28;8942;-60
2023/01/06 03:50:09;;;;;;;;;0.00;0.00;;;;;11.19;81.73;100016.94;5037208;28;8920;-60
2023/01/06 03:52:36;;;;;;;;;0.75;0.75;;;;;11.20;81.83;100013.31;5037837;28;8848;-60
2023/01/06 03:55:04;;;;;;;;;0.00;0.00;;;;;11.20;81.56;100015.97;5038548;28;8844;-60
2023/01/06 03:57:32;;;;;;;;;0.00;0.00;;;;;11.21;81.53;100011.50;5038253;28;8851;-60
2023/01/06 04:00:00;;;;;;;;;2.50;1.00;;;;;11.21;81.64;100012.34;5038156;28;8812;-60
2023/01/06 04:02:27;;;;;;;;;0.00;0.00;;;;;11.20;81.81;100015.97;5038870;28;9547;-61
2023/01/06 04:04:55;;;;;;;;;0.00;0.00;;;;;11.21;80.86;100012.34;5038522;28;8848;-61
2023/01/06 04:07:22;;;;;;;;;0.00;0.00;;;;;11.22;80.69;100019.34;5038437;28;8855;-60
2023/01/06 04:09:51;;;;;;;;;0.00;0.00;;;;;11.22;81.49;100014.03;5038437;28;9522;-61
2023/01/06 04:15:03;;;;;;;;;0.25;0.25;;;;;11.25;80.81;100008.47;5037045;28;8833;-61
2023/01/06 04:17:31;;;;;;;;;0.00;0.00;;;;;11.25;80.46;100007.59;5036969;28;8930;-60
2023/01/06 04:19:59;;;;;;;;;0.00;0.00;;;;;11.23;80.34;100005.06;5036824;28;8869;-60
2023/01/06 04:22:27;;;;;;;;;0.00;0.00;;;;;11.23;80.24;99998.88;5036785;28;8805;-60
2023/01/06 04:24:54;;;;;;;;;0.25;0.00;;;;;11.22;80.38;100008.69;5037001;28;8918;-60
2023/01/06 04:27:22;;;;;;;;;0.00;0.00;;;;;11.22;80.06;99997.19;5037502;28;8832;-61
2023/01/06 04:29:50;;;;;;;;;0.00;0.00;;;;;11.24;79.77;99997.91;5037672;28;8986;-60
2023/01/06 04:32:17;;;;;;;;;0.00;0.00;;;;;11.24;80.30;99987.25;5037048;28;8813;-61
2023/01/06 04:34:45;;;;;;;;;1.00;1.00;;;;;11.24;79.81;99976.59;5037706;28;8875;-60
2023/01/06 04:37:13;;;;;;;;;0.00;0.00;;;;;11.25;79.48;99986.28;5036913;28;8832;-60
2023/01/06 04:39:41;;;;;;;;;0.00;0.00;;;;;11.24;79.80;99982.75;5037303;28;8836;-61
2023/01/06 04:42:08;;;;;;;;;0.00;0.00;;;;;11.22;79.44;99971.38;5037774;28;9512;-60
2023/01/06 04:44:37;;;;;;;;;0.00;0.00;;;;;11.21;79.11;99983.00;5037852;28;8836;-60
2023/01/06 04:47:04;;;;;;;;;0.00;0.00;;;;;11.21;79.35;99983.00;5036253;28;8840;-61
2023/01/06 04:49:32;;;;;;;;;0.00;0.00;;;;;11.21;78.89;99975.00;5036316;28;8857;-60
2023/01/06 04:51:59;;;;;;;;;0.75;0.75;;;;;11.20;79.50;99968.00;5036139;28;8861;-59
2023/01/06 04:54:27;;;;;;;;;0.25;0.25;;;;;11.18;79.49;99974.41;5035814;28;8852;-60
2023/01/06 04:56:57;;;;;;;;;0.00;0.00;;;;;11.18;79.68;99966.44;5036640;28;8816;-60
2023/01/06 04:59:24;;;;;;;;;0.00;0.00;;;;;11.17;79.11;99956.75;5036188;28;8939;-59
2023/01/06 05:01:52;;;;;;;;;0.00;0.00;;;;;11.16;79.24;99961.22;5036195;28;8844;-60
2023/01/06 05:04:20;;;;;;;;;1.00;1.00;;;;;11.16;78.61;99963.88;5036379;28;8828;-60
2023/01/06 05:06:47;;;;;;;;;0.00;0.00;;;;;11.15;79.24;99966.69;5036942;28;8816;-60
2023/01/06 05:09:15;;;;;;;;;0.00;0.00;;;;;11.12;79.42;99958.91;5035775;28;8832;-60
2023/01/06 05:11:43;;;;;;;;;0.00;0.00;;;;;11.10;79.15;99945.75;5036338;28;8825;-60
2023/01/06 05:14:11;;;;;;;;;0.00;0.00;;;;;11.10;78.95;99945.75;5037191;28;8840;-61
2023/01/06 05:16:38;;;;;;;;;1.00;1.00;;;;;11.10;79.41;99956.41;5036961;28;8925;-59
2023/01/06 05:19:06;;;;;;;;;0.00;0.00;;;;;11.09;78.77;99940.53;5036925;28;8820;-61
2023/01/06 05:21:34;;;;;;;;;0.00;0.00;;;;;11.07;78.69;99935.31;5036545;28;8847;-60
2023/01/06 05:24:02;;;;;;;;;0.00;0.00;;;;;11.07;79.33;99934.50;5036206;28;8828;-60
2023/01/06 05:26:29;;;;;;;;;0.00;0.00;;;;;11.06;79.15;99932.81;5036078;28;8836;-60
2023/01/06 05:28:57;;;;;;;;;0.50;0.50;;;;;11.04;79.12;99930.25;5036234;28;8820;-59
2023/01/06 05:31:24;;;;;;;;;0.00;0.00;;;;;11.03;79.00;99933.88;5035814;28;8805;-60
2023/01/06 05:33:53;;;;;;;;;0.50;0.50;;;;;11.04;79.20;99932.06;5036454;28;8840;-60
2023/01/06 05:36:20;;;;;;;;;1.00;0.00;;;;;11.05;78.80;99933.75;5036187;28;8847;-59
2023/01/06 05:38:48;;;;;;;;;0.50;0.50;;;;;11.05;79.21;99926.59;5036315;28;8842;-60
2023/01/06 05:41:16;;;;;;;;;0.00;0.00;;;;;11.06;78.76;99928.28;5036475;28;8833;-60
2023/01/06 05:43:43;;;;;;;;;0.00;0.00;;;;;11.08;78.55;99933.50;5035702;28;8831;-61
2023/01/06 05:46:11;;;;;;;;;1.00;0.75;;;;;11.08;78.70;99930.84;5035585;28;8858;-60
2023/01/06 05:48:39;;;;;;;;;0.00;0.00;;;;;11.07;78.56;99924.66;5035454;28;8867;-60
2023/01/06 05:51:07;;;;;;;;;1.00;1.00;;;;;11.07;78.76;99945.16;5034664;28;8848;-60
2023/01/06 05:53:34;;;;;;;;;0.50;0.50;;;;;11.07;78.89;99935.31;5034823;28;8817;-60
2023/01/06 05:56:02;;;;;;;;;0.00;0.00;;;;;11.07;78.35;99931.81;5035281;28;8836;-59
2023/01/06 05:58:32;;;;;;;;;0.50;0.00;;;;;11.07;78.60;99927.31;5035033;28;9537;-61
2023/01/06 06:00:59;;;;;;;;;0.00;0.00;;;;;11.06;78.57;99925.63;5035694;28;8860;-60
2023/01/06 06:03:27;;;;;;;;;0.00;0.00;;;;;11.05;78.88;99941.72;5035745;28;8836;-61
2023/01/06 06:05:55;;;;;;;;;0.50;0.50;;;;;11.03;78.90;99949.88;5036208;28;8832;-60
2023/01/06 06:08:23;;;;;;;;;0.00;0.00;;;;;11.03;79.18;99947.22;5036087;28;8825;-61
2023/01/06 06:10:51;;;;;;;;;0.00;0.00;;;;;11.04;78.38;99946.25;5036213;28;8836;-60
2023/01/06 06:13:18;;;;;;;;;0.00;0.00;;;;;11.05;78.34;99949.72;5036001;28;8875;-61
2023/01/06 06:15:46;;;;;;;;;0.00;0.00;;;;;11.05;77.89;99947.94;5035770;28;8918;-61
2023/01/06 06:18:13;;;;;;;;;0.00;0.00;;;;;11.05;78.22;99947.94;5035566;28;8859;-61
2023/01/06 06:20:41;;;;;;;;;0.00;0.00;;;;;11.04;78.10;99950.72;5035773;28;9637;-60
2023/01/06 06:23:09;;;;;;;;;0.50;0.50;;;;;11.03;78.84;99941.03;5035566;28;9530;-60
2023/01/06 06:25:37;;;;;;;;;0.00;0.00;;;;;11.02;77.99;99953.53;5035779;28;8832;-59
2023/01/06 06:28:05;;;;;;;;;0.00;0.00;;;;;11.02;77.94;99947.31;5036457;28;8828;-58
2023/01/06 06:30:32;;;;;;;;;0.00;0.00;;;;;11.02;78.32;99947.31;5035520;28;8820;-61
2023/01/06 06:33:00;;;;;;;;;0.00;0.00;;;;;11.00;78.63;99934.13;5035477;28;8851;-58
2023/01/06 06:35:28;;;;;;;;;0.00;0.00;;;;;11.01;78.31;99945.63;5035174;28;8871;-59
2023/01/06 06:37:56;;;;;;;;;0.00;0.00;;;;;11.00;78.29;99938.63;5035287;28;8879;-61
2023/01/06 06:40:23;;;;;;;;;0.00;0.00;;;;;10.99;78.38;99936.94;5034864;28;8800;-60
2023/01/06 06:42:52;;;;;;;;;0.00;0.00;;;;;10.99;78.42;99939.59;5036523;28;8825;-60
2023/01/06 06:45:20;;;;;;;;;0.00;0.00;;;;;11.00;78.03;99935.97;5035192;28;8863;-60
2023/01/06 06:47:48;;;;;;;;;0.00;0.00;;;;;11.01;78.45;99919.81;5035066;28;8864;-60
2023/01/06 06:50:15;;;;;;;;;0.00;0.00;;;;;11.03;78.09;99923.22;5034446;28;8840;-60
2023/01/06 06:52:43;;;;;;;;;0.00;0.00;;;;;11.02;77.62;99924.22;5033714;28;8855;-58
2023/01/06 06:55:10;;;;;;;;;0.00;0.00;;;;;11.01;78.11;99930.47;5033844;28;8840;-60
2023/01/06 06:57:38;;;;;;;;;0.00;0.00;;;;;11.00;77.83;99933.28;5034110;28;8837;-58
2023/01/06 07:00:06;;;;;;;;;0.00;0.00;;;;;11.01;77.79;99941.13;5034557;28;8832;-59
2023/01/06 07:02:34;;;;;;;;;0.00;0.00;;;;;11.01;78.27;99945.63;5034313;28;8951;-59
2023/01/06 07:05:02;;;;;;;;;0.00;0.00;;;;;11.01;77.59;99951.78;5034195;28;8824;-60
2023/01/06 07:07:30;;;;;;;;;0.00;0.00;;;;;11.01;77.51;99950.97;5034605;28;8841;-60
2023/01/06 07:09:58;;;;;;;;;0.00;0.00;;;;;11.01;77.82;99943.81;5034532;28;9534;-60
2023/01/06 07:12:26;;;;;;;;;0.00;0.00;;;;;11.03;77.63;99939.22;5034429;28;8836;-60
2023/01/06 07:14:53;;;;;;;;;0.00;0.00;;;;;11.04;77.81;99935.56;5034176;28;8847;-60
2023/01/06 07:17:21;;;;;;;;;0.00;0.00;;;;;11.03;77.64;99944.56;5034383;28;8840;-58
2023/01/06 07:19:49;;;;;;;;;0.00;0.00;;;;;11.02;77.52;99931.34;5034309;28;8886;-60
2023/01/06 07:22:16;;;;;;;;;1.00;1.00;;;;;10.99;77.78;99937.75;5034314;28;8820;-60
2023/01/06 07:24:44;;;;;;;;;0.25;0.25;;;;;10.94;78.09;99937.28;5034582;28;8836;-60
2023/01/06 07:27:12;;;;;;;;;1.00;1.00;;;;;10.90;78.08;99938.50;5034268;28;8840;-60
2023/01/06 07:29:40;;;;;;;;;1.00;0.00;;;;;10.85;77.94;99938.03;5034036;28;8852;-59
2023/01/06 07:32:08;;;;;;;;;0.00;0.00;;;;;10.80;78.53;99937.56;5035082;28;8848;-59
2023/01/06 07:34:36;;;;;;;;;0.00;0.00;;;;;10.78;78.15;99934.16;5037826;28;8841;-59
2023/01/06 07:37:04;;;;;;;;;0.00;0.00;;;;;10.75;78.17;99929.09;5037655;28;8852;-60
2023/01/06 07:39:32;;;;;;;;;0.00;0.00;;;;;10.73;78.53;99925.72;5037943;28;8836;-60
2023/01/06 07:42:00;;;;;;;;;0.00;0.00;;;;;10.68;78.13;99933.22;5037556;28;8859;-60
2023/01/06 07:44:27;;;;;;;;;0.00;0.00;;;;;10.65;78.68;99932.63;5037725;28;8867;-59
2023/01/06 07:46:55;;;;;;;;;0.50;0.00;;;;;10.62;78.87;99919.56;5037796;28;9510;-60
2023/01/06 07:49:24;;;;;;;;;0.75;0.75;;;;;10.57;78.74;99935.91;5036475;28;8846;-59
2023/01/06 07:51:52;;;;;;;;;0.75;0.75;;;;;10.52;79.34;99915.91;5037049;28;8848;-60
2023/01/06 07:54:19;;;;;;;;;0.00;0.00;;;;;10.51;79.17;99925.75;5036936;28;9562;-60
2023/01/06 07:56:47;;;;;;;;;0.00;0.00;;;;;10.53;78.87;99912.28;5037152;28;8820;-59
2023/01/06 07:59:15;;;;;;;;;0.00;0.00;;;;;10.56;79.16;99923.53;5037118;28;8959;-60
2023/01/06 08:01:43;;;;;;;;;1.00;1.00;;;;;10.57;78.98;99909.28;5037457;28;8832;-60
2023/01/06 08:04:11;;;;;;;;;0.00;0.00;;;;;10.57;79.41;99927.06;5036796;28;8851;-60
2023/01/06 08:06:39;;;;;;;;;0.00;0.00;;;;;10.58;79.38;99916.28;5037381;28;8840;-60
2023/01/06 08:09:07;;;;;;;;;1.00;0.00;;;;;10.57;79.23;99911.94;5037291;28;8866;-60
2023/01/06 08:11:35;;;;;;;;;0.50;0.00;;;;;10.59;79.23;99922.44;5036077;28;8836;-59
2023/01/06 08:14:05;;;;;;;;;0.00;0.00;;;;;10.60;78.93;99924.13;5036141;28;8848;-58
2023/01/06 08:16:32;;;;;;;;;0.00;0.00;;;;;10.62;79.13;99933.69;5035979;28;8837;-59
2023/01/06 08:19:00;;;;;;;;;0.25;0.25;;;;;10.64;79.24;99936.25;5036148;28;8841;-60
2023/01/06 08:21:28;;;;;;;;;0.50;0.00;;;;;10.64;79.58;99923.81;5036396;28;8840;-60
2023/01/06 08:23:56;;;;;;;;;0.00;0.00;;;;;10.66;79.18;99918.31;5036152;28;8813;-61
2023/01/06 08:26:24;;;;;;;;;0.00;0.00;;;;;10.66;79.58;99929.84;5036938;28;8837;-59
2023/01/06 08:28:52;;;;;;;;;0.00;0.00;;;;;10.68;78.94;99922.56;5036649;28;8816;-59
2023/01/06 08:31:20;;;;;;;;;0.00;0.00;;;;;10.67;78.96;99920.88;5036979;28;8817;-61
2023/01/06 08:33:48;;;;;;;;;1.00;1.00;;;;;10.66;79.28;99927.19;5037883;28;9475;-61
2023/01/06 08:36:16;;;;;;;;;0.00;0.00;;;;;10.67;79.30;99936.84;5037329;28;8906;-60
2023/01/06 08:38:44;;;;;;;;;0.00;0.00;;;;;10.67;79.22;99931.53;5036134;28;8867;-60
2023/01/06 08:41:12;;;;;;;;;1.00;1.00;;;;;10.66;78.90;99936.97;5034715;28;8829;-61
2023/01/06 08:43:40;;;;;;;;;0.00;0.00;;;;;10.65;79.80;99933.47;5033755;28;8983;-61
2023/01/06 08:46:07;;;;;;;;;0.00;0.00;;;;;10.66;79.66;99943.16;5035045;28;8840;-60
2023/01/06 08:48:35;;;;;;;;;0.00;0.00;;;;;10.65;79.11;99944.13;5034884;28;8853;-57
2023/01/06 08:51:04;;;;;;;;;0.00;0.00;;;;;10.58;79.51;99939.41;5035404;28;8848;-59
2023/01/06 08:53:31;;;;;;;;;8.50;6.50;;;;;10.52;79.41;99951.38;5034292;28;8854;-57
2023/01/06 08:55:59;;;;;;;;;1.00;1.00;;;;;10.47;79.84;99958.88;5034713;28;8898;-60
2023/01/06 08:58:27;;;;;;;;;0.00;0.00;;;;;10.46;80.24;99970.50;5034940;28;9075;-59
2023/01/06 09:00:55;;;;;;;;;1.00;1.00;;;;;10.48;79.51;99973.06;5035061;28;8841;-61
2023/01/06 09:03:23;;;;;;;;;0.00;0.00;;;;;10.55;79.79;99979.59;5035624;28;8833;-60
2023/01/06 09:05:51;;;;;;;;;0.50;0.50;;;;;10.61;79.89;99979.94;5035007;28;8990;-59
2023/01/06 09:08:19;;;;;;;;;0.00;0.00;;;;;10.61;79.33;99987.09;5035025;28;8955;-57
2023/01/06 09:10:47;;;;;;;;;0.00;0.00;;;;;10.57;79.96;99996.28;5035793;28;9499;-59
2023/01/06 09:13:15;;;;;;;;;0.00;0.00;;;;;10.47;80.18;99996.16;5036253;28;8905;-60
2023/01/06 09:15:44;;;;;;;;;0.00;0.00;;;;;10.40;80.41;99996.78;5035781;28;9520;-59
2023/01/06 09:18:12;;;;;;;;;0.00;0.00;;;;;10.33;80.61;100007.03;5036198;28;9534;-60
2023/01/06 09:20:39;;;;;;;;;0.00;0.00;;;;;10.31;80.27;99992.16;5035287;28;8844;-59
2023/01/06 09:23:07;;;;;;;;;0.00;0.00;;;;;10.31;80.64;99987.69;5035260;28;8967;-60
2023/01/06 09:25:35;;;;;;;;;0.75;0.00;;;;;10.31;80.99;99995.66;5034566;28;8821;-60
2023/01/06 09:28:03;;;;;;;;;0.00;0.00;;;;;10.29;80.49;99994.94;5034223;28;8855;-60
2023/01/06 09:30:31;;;;;;;;;0.25;0.25;;;;;10.29;80.99;100005.59;5034487;28;8845;-60
2023/01/06 09:32:59;;;;;;;;;0.00;0.00;;;;;10.30;81.06;100007.28;5034533;28;8844;-60
2023/01/06 09:35:27;;;;;;;;;0.25;0.25;;;;;10.31;80.56;100003.66;5033879;28;8828;-60
2023/01/06 09:37:55;;;;;;;;;2.00;1.00;;;;;10.36;80.57;100005.94;5034247;28;8828;-59
2023/01/06 09:40:24;;;;;;;;;1.00;1.00;;;;;10.41;80.31;100014.44;5033774;28;8983;-60
2023/01/06 09:42:52;;;;;;;;;0.50;0.50;;;;;10.46;80.74;100006.94;5033974;28;8836;-58
2023/01/06 09:45:20;;;;;;;;;0.00;0.00;;;;;10.50;80.37;100003.91;5034521;28;8856;-60
2023/01/06 09:47:48;;;;;;;;;2.00;2.00;;;;;10.53;80.82;100016.13;5035272;28;9649;-60
2023/01/06 09:50:16;;;;;;;;;0.00;0.00;;;;;10.50;80.55;100011.91;5035449;28;8843;-60
2023/01/06 09:52:46;;;;;;;;;0.00;0.00;;;;;10.49;80.80;100023.53;5035393;28;8883;-58
2023/01/06 09:55:14;;;;;;;;;1.00;1.00;;;;;10.51;80.97;100031.38;5034301;28;8812;-59
2023/01/06 09:57:42;;;;;;;;;1.00;0.75;;;;;10.52;80.56;100023.28;5035052;28;9513;-60
2023/01/06 10:00:10;;;;;;;;;3.00;3.00;;;;;10.49;81.14;100028.00;5034826;28;8855;-59
2023/01/06 10:02:39;;;;;;;;;0.75;0.75;;;;;10.46;81.26;100029.06;5034949;28;8852;-59
2023/01/06 10:05:07;;;;;;;;;1.00;1.00;;;;;10.46;80.86;100026.41;5035501;28;8978;-60
2023/01/06 10:07:35;;;;;;;;;0.00;0.00;;;;;10.43;81.26;100017.81;5034934;28;8847;-59
2023/01/06 10:10:03;;;;;;;;;1.50;1.00;;;;;10.36;81.63;100036.09;5034468;28;8891;-59
2023/01/06 10:12:31;;;;;;;;;0.00;0.00;;;;;10.31;81.51;100027.59;5034351;28;8887;-59
2023/01/06 10:14:58;;;;;;;;;1.00;1.00;;;;;10.28;81.99;100032.31;5034241;28;8855;-59
2023/01/06 10:17:27;;;;;;;;;0.00;0.00;;;;;10.26;81.75;100032.41;5034357;28;8856;-59
2023/01/06 10:19:55;;;;;;;;;1.00;0.25;;;;;10.25;82.15;100038.72;5033324;28;8872;-59
2023/01/06 10:22:23;;;;;;;;;1.00;1.00;;;;;10.23;82.14;100022.03;5033024;28;8958;-58
2023/01/06 10:24:51;;;;;;;;;1.00;1.00;;;;;10.24;82.67;100010.41;5032490;28;8848;-59
2023/01/06 10:27:19;;;;;;;;;1.00;1.00;;;;;10.25;82.08;100020.09;5033664;28;8934;-59
2023/01/06 10:29:48;;;;;;;;;1.00;1.00;;;;;10.26;82.53;100024.44;5032069;28;9510;-59
2023/01/06 10:32:16;;;;;;;;;1.00;1.00;;;;;10.27;82.20;100027.94;5031970;28;8878;-59
2023/01/06 10:34:44;;;;;;;;;0.50;0.00;;;;;10.28;82.59;100019.00;5031427;28;8863;-59
2023/01/06 10:37:12;;;;;;;;;0.75;0.75;;;;;10.29;82.26;100018.88;5031693;28;9874;-58
2023/01/06 10:39:39;;;;;;;;;1.00;1.00;;;;;10.30;82.91;100028.56;5032185;28;8845;-59
2023/01/06 10:44:54;;;;;;;;;0.75;0.75;;;;;10.33;82.62;100009.69;5033894;28;8998;-59
2023/01/06 10:47:22;;;;;;;;;0.00;0.00;;;;;10.34;82.85;100011.41;5033981;28;8872;-59
2023/01/06 10:49:50;;;;;;;;;1.00;1.00;;;;;10.36;82.80;100013.94;5034462;28;8824;-59
2023/01/06 10:52:18;;;;;;;;;1.00;1.00;;;;;10.38;83.22;100019.97;5033998;28;8828;-60
2023/01/06 10:54:46;;;;;;;;;3.75;2.50;;;;;10.39;82.75;100022.53;5033612;28;8922;-60
2023/01/06 10:57:14;;;;;;;;;0.00;0.00;;;;;10.40;82.39;100020.72;5032695;28;8824;-59
2023/01/06 10:59:42;;;;;;;;;1.00;1.00;;;;;10.42;82.51;100022.31;5033779;28;9514;-58
2023/01/06 11:02:11;;;;;;;;;1.00;1.00;;;;;10.46;82.75;100020.25;5032739;28;8832;-59
2023/01/06 11:04:40;;;;;;;;;1.00;1.00;;;;;10.48;82.13;100018.31;5032464;28;9534;-56
2023/01/06 11:07:10;;;;;;;;;1.50;1.50;;;;;10.49;82.48;100015.53;5033808;28;8836;-57
2023/01/06 11:09:39;;;;;;;;;4.00;3.50;;;;;10.52;82.58;100025.06;5037127;28;8844;-59
2023/01/06 11:12:07;;;;;;;;;1.50;1.50;;;;;10.53;82.76;100024.97;5037090;28;8836;-59
2023/01/06 11:14:35;;;;;;;;;0.50;0.50;;;;;10.56;82.39;100022.06;5036478;28;8848;-60
2023/01/06 11:17:03;;;;;;;;;0.00;0.00;;;;;10.58;82.55;100033.47;5037192;28;8864;-59
2023/01/06 11:19:31;;;;;;;;;1.50;1.00;;;;;10.61;82.82;100030.53;5036924;28;8839;-59
2023/01/06 11:22:00;;;;;;;;;0.00;0.00;;;;;10.65;82.85;100023.16;5036498;28;8859;-58
2023/01/06 11:24:28;;;;;;;;;1.00;1.00;;;;;10.68;82.53;100037.09;5036027;28;8824;-59
2023/01/06 11:26:56;;;;;;;;;0.75;0.75;;;;;10.71;82.52;100036.00;5035723;28;8920;-59
2023/01/06 11:29:26;;;;;;;;;1.00;1.00;;;;;10.76;82.42;100029.34;5036864;28;8852;-58
2023/01/06 11:31:53;;;;;;;;;2.00;0.75;;;;;10.84;82.48;100026.09;5036744;28;8995;-59
2023/01/06 11:34:22;;;;;;;;;1.00;0.00;;;;;10.96;82.62;100027.75;5037169;28;8879;-59
2023/01/06 11:36:50;;;;;;;;;1.50;1.00;;;;;11.06;81.91;100029.56;5037221;28;8874;-59
2023/01/06 11:39:20;;;;;;;;;0.25;0.25;;;;;11.14;82.09;100021.78;5037625;28;8844;-59
2023/01/06 11:41:48;;;;;;;;;0.00;0.00;;;;;11.24;81.86;100021.91;5037859;28;9516;-57
2023/01/06 11:44:16;;;;;;;;;0.00;0.00;;;;;11.33;81.70;100022.00;5036777;28;8963;-59
2023/01/06 11:46:44;;;;;;;;;0.00;0.00;;;;;11.40;81.47;100017.00;5037149;28;8861;-59